createdAt,value
2022-11-04T00:01:05.543Z,99302.28
2022-11-04T00:04:07.847Z,99293.56
2022-11-04T00:07:29.507Z,99281.25
2022-11-04T00:10:51.208Z,99283.72
2022-11-04T00:13:52.848Z,99278.25
2022-11-04T00:17:13.283Z,99279.03
2022-11-04T00:20:34.299Z,99261.31
2022-11-04T00:23:54.770Z,99262.94
2022-11-04T00:27:16.790Z,99256.78
2022-11-04T00:30:18.400Z,99258.25
2022-11-04T00:33:26.108Z,99252.09
2022-11-04T00:36:27.759Z,99252.88
2022-11-04T00:39:29.668Z,99259.97
2022-11-04T00:42:32.895Z,99275.47
2022-11-04T00:45:34.504Z,99272.84
2022-11-04T00:48:36.158Z,99278.22
2022-11-04T00:51:37.716Z,99282.56
2022-11-04T00:54:39.418Z,99280.72
2022-11-04T00:57:42.449Z,99285.75
2022-11-04T01:00:44.034Z,99294.69
2022-11-04T01:03:46.243Z,99305.03
2022-11-04T01:06:48.289Z,99315.44
2022-11-04T01:09:50.060Z,99316.38
2022-11-04T01:12:53.431Z,99315.22
2022-11-04T01:15:58.012Z,99317.06
2022-11-04T01:18:59.599Z,99321.63
2022-11-04T01:22:01.235Z,99316.94
2022-11-04T01:25:02.935Z,99308.78
2022-11-04T01:28:06.025Z,99317.06
2022-11-04T01:31:09.835Z,99310.97
2022-11-04T01:34:11.479Z,99314.31
2022-11-04T01:37:13.108Z,99315.78
2022-11-04T01:40:14.833Z,99327.84
2022-11-04T01:43:19.523Z,99322.38
2022-11-04T01:46:27.982Z,99323.97
2022-11-04T01:49:33.056Z,99332.41
2022-11-04T01:52:40.373Z,99329.53
2022-11-04T01:55:46.402Z,99329.78
2022-11-04T01:58:53.432Z,99333.88
2022-11-04T02:01:55.141Z,99329.53
2022-11-04T02:04:56.867Z,99340.03
2022-11-04T02:08:01.200Z,99319.94
2022-11-04T02:11:06.262Z,99324.81
2022-11-04T02:14:09.199Z,99324.75
2022-11-04T02:17:22.290Z,99325.56
2022-11-04T02:20:44.177Z,99331.59
2022-11-04T02:24:07.909Z,99345.66
2022-11-04T02:27:28.087Z,99349.31
2022-11-04T02:30:36.346Z,99347.63
2022-11-04T02:33:41.846Z,99361.28
2022-11-04T02:36:47.512Z,99361.84
2022-11-04T02:39:55.218Z,99363.44
2022-11-04T02:43:01.616Z,99364.09
2022-11-04T02:46:10.447Z,99362.75
2022-11-04T02:49:15.754Z,99353.59
2022-11-04T02:52:23.351Z,99354.66
2022-11-04T02:55:30.877Z,99354.66
2022-11-04T02:58:37.163Z,99362.81
2022-11-04T03:01:43.274Z,99373.19
2022-11-04T03:04:51.475Z,99369.22
2022-11-04T03:07:57.554Z,99365.59
2022-11-04T03:11:03.046Z,99385.22
2022-11-04T03:14:09.974Z,99393.41
2022-11-04T03:17:20.527Z,99368.31
2022-11-04T03:20:25.550Z,99358.91
2022-11-04T03:23:27.521Z,99383.03
2022-11-04T03:26:34.863Z,99375.31
2022-11-04T03:29:45.019Z,99388.91
2022-11-04T03:32:59.163Z,99414.66
2022-11-04T03:36:03.011Z,99410.66
2022-11-04T03:39:04.616Z,99395.66
2022-11-04T03:42:20.333Z,99406.41
2022-11-04T03:45:23.148Z,99398.53
2022-11-04T03:48:26.753Z,99408.78
2022-11-04T03:51:28.309Z,99402.25
2022-11-04T03:54:35.491Z,99400.78
2022-11-04T03:57:48.815Z,99411.06
2022-11-04T04:00:58.142Z,99388.69
2022-11-04T04:04:07.913Z,99390.78
2022-11-04T04:07:17.509Z,99378.28
2022-11-04T04:10:41.812Z,99391.19
2022-11-04T04:14:01.074Z,99398.72
2022-11-04T04:20:19.898Z,99404.16
2022-11-04T04:23:44.632Z,99395.47
2022-11-04T04:27:07.390Z,99389.31
2022-11-04T04:30:12.156Z,99400.88
2022-11-04T04:33:16.719Z,99399.31
2022-11-04T04:36:19.982Z,99388.59
2022-11-04T04:39:44.247Z,99377.09
2022-11-04T04:43:04.744Z,99375.13
2022-11-04T04:46:06.456Z,99378.56
2022-11-04T04:49:09.467Z,99381.19
2022-11-04T04:52:12.639Z,99383.25
2022-11-04T04:55:14.670Z,99379.22
2022-11-04T04:58:16.252Z,99372.56
2022-11-04T05:01:18.007Z,99363.91
2022-11-04T05:04:19.662Z,99363.09
2022-11-04T05:07:22.757Z,99375.41
2022-11-04T05:10:24.324Z,99369.91
2022-11-04T05:13:26.020Z,99368.88
2022-11-04T05:16:27.633Z,99379.19
2022-11-04T05:19:29.248Z,99377.38
2022-11-04T05:22:32.227Z,99375.03
2022-11-04T05:25:33.920Z,99370.97
2022-11-04T05:28:35.774Z,99373.72
2022-11-04T05:31:37.426Z,99367.13
2022-11-04T05:34:39.003Z,99364.94
2022-11-04T05:37:41.975Z,99360.84
2022-11-04T05:40:43.584Z,99370.78
2022-11-04T05:43:45.226Z,99360.72
2022-11-04T05:46:46.938Z,99357.97
2022-11-04T05:49:48.599Z,99348.75
2022-11-04T05:52:51.589Z,99351.53
2022-11-04T05:55:53.190Z,99352.44
2022-11-04T05:58:55.253Z,99355.31
2022-11-04T06:01:57.046Z,99352.44
2022-11-04T06:04:59.037Z,99350.72
2022-11-04T06:08:02.048Z,99359.22
2022-11-04T06:11:05.254Z,99360.53
2022-11-04T06:14:06.855Z,99362.22
2022-11-04T06:20:18.497Z,99374.53
2022-11-04T06:23:21.445Z,99374.94
2022-11-04T06:26:27.835Z,99388.06
2022-11-04T06:29:30.208Z,99390.28
2022-11-04T06:32:31.911Z,99382.94
2022-11-04T06:35:33.502Z,99393.97
2022-11-04T06:38:37.809Z,99384.91
2022-11-04T06:41:39.832Z,99388.97
2022-11-04T06:44:42.539Z,99392.88
2022-11-04T06:47:44.143Z,99388.31
2022-11-04T06:50:45.756Z,99389.31
2022-11-04T06:53:48.864Z,99379.72
2022-11-04T06:56:50.544Z,99386.81
2022-11-04T06:59:52.339Z,99377.06
2022-11-04T07:02:54.102Z,99369.44
2022-11-04T07:05:55.795Z,99371.16
2022-11-04T07:09:01.052Z,99367.06
2022-11-04T07:12:02.740Z,99378.91
2022-11-04T07:15:05.096Z,99378.09
2022-11-04T07:18:07.223Z,99382.19
2022-11-04T07:21:10.309Z,99392.03
2022-11-04T07:24:13.563Z,99401.59
2022-11-04T07:27:15.251Z,99411.31
2022-11-04T07:30:17.019Z,99410.53
2022-11-04T07:33:18.696Z,99414.44
2022-11-04T07:36:20.579Z,99431.09
2022-11-04T07:39:23.556Z,99434.38
2022-11-04T07:42:25.126Z,99440.00
2022-11-04T07:45:30.029Z,99429.38
2022-11-04T07:48:32.076Z,99434.09
2022-11-04T07:51:34.358Z,99430.00
2022-11-04T07:54:37.376Z,99434.72
2022-11-04T07:57:39.108Z,99425.53
2022-11-04T08:00:41.633Z,99418.44
2022-11-04T08:03:43.443Z,99409.00
2022-11-04T08:06:45.311Z,99409.22
2022-11-04T08:09:48.372Z,99410.13
2022-11-04T08:12:51.630Z,99404.22
2022-11-04T08:15:53.303Z,99403.97
2022-11-04T08:18:55.580Z,99394.50
2022-11-04T08:21:57.222Z,99399.22
2022-11-04T08:25:00.500Z,99391.34
2022-11-04T08:28:02.124Z,99388.44
2022-11-04T08:31:05.843Z,99394.47
2022-11-04T08:34:08.562Z,99409.81
2022-11-04T08:37:13.033Z,99389.22
2022-11-04T08:40:16.089Z,99387.09
2022-11-04T08:43:17.718Z,99391.53
2022-11-04T08:46:19.552Z,99390.72
2022-11-04T08:49:21.697Z,99381.63
2022-11-04T08:52:23.774Z,99387.59
2022-11-04T08:55:28.832Z,99392.06
2022-11-04T08:58:30.464Z,99396.53
2022-11-04T09:01:35.859Z,99404.28
2022-11-04T09:04:37.904Z,99399.94
2022-11-04T09:07:39.533Z,99411.84
2022-11-04T09:10:43.636Z,99406.16
2022-11-04T09:13:45.633Z,99399.78
2022-11-04T09:16:47.356Z,99401.41
2022-11-04T09:19:49.233Z,99400.94
2022-11-04T09:22:50.985Z,99400.50
2022-11-04T09:25:55.993Z,99412.75
2022-11-04T09:28:58.482Z,99406.44
2022-11-04T09:32:00.362Z,99404.75
2022-11-04T09:35:02.832Z,99415.94
2022-11-04T09:38:04.778Z,99423.53
2022-11-04T09:41:34.678Z,99428.91
2022-11-04T09:45:15.092Z,99429.81
2022-11-04T09:48:11.603Z,99439.88
2022-11-04T09:51:32.499Z,99447.34
2022-11-04T09:54:50.337Z,99441.31
2022-11-04T09:57:55.751Z,99444.53
2022-11-04T10:01:02.808Z,99445.22
2022-11-04T10:04:18.247Z,99446.59
2022-11-04T10:07:37.196Z,99455.88
2022-11-04T10:10:47.603Z,99450.53
2022-11-04T10:14:13.039Z,99455.13
2022-11-04T10:17:31.782Z,99442.63
2022-11-04T10:20:49.281Z,99442.41
2022-11-04T10:24:06.676Z,99435.97
2022-11-04T10:27:15.379Z,99436.91
2022-11-04T10:30:20.983Z,99433.34
2022-11-04T10:33:29.041Z,99433.94
2022-11-04T10:36:31.591Z,99436.22
2022-11-04T10:39:40.547Z,99431.69
2022-11-04T10:42:42.465Z,99427.16
2022-11-04T10:45:52.271Z,99429.88
2022-11-04T10:49:01.378Z,99425.00
2022-11-04T10:52:03.660Z,99427.19
2022-11-04T10:55:14.749Z,99411.75
2022-11-04T10:58:22.538Z,99413.81
2022-11-04T11:01:29.027Z,99406.59
2022-11-04T11:04:33.307Z,99407.50
2022-11-04T11:07:37.079Z,99415.41
2022-11-04T11:10:51.770Z,99405.81
2022-11-04T11:13:53.587Z,99408.00
2022-11-04T11:16:57.459Z,99405.34
2022-11-04T11:20:02.678Z,99406.78
2022-11-04T11:23:10.310Z,99416.53
2022-11-04T11:26:14.472Z,99407.75
2022-11-04T11:29:22.999Z,99403.28
2022-11-04T11:32:32.070Z,99407.53
2022-11-04T11:35:41.308Z,99403.66
2022-11-04T11:38:54.941Z,99399.75
2022-11-04T11:42:00.353Z,99404.28
2022-11-04T11:45:06.602Z,99395.66
2022-11-04T11:48:27.923Z,99390.41
2022-11-04T11:51:32.740Z,99395.38
2022-11-04T11:54:37.648Z,99391.78
2022-11-04T12:01:25.145Z,99384.28
2022-11-04T12:11:31.361Z,99377.81
2022-11-04T12:14:48.892Z,99380.44
2022-11-04T12:18:02.406Z,99374.16
2022-11-04T12:21:13.190Z,99369.34
2022-11-04T12:24:21.102Z,99364.44
2022-11-04T12:27:31.037Z,99366.09
2022-11-04T12:30:38.679Z,99367.09
2022-11-04T12:33:47.112Z,99372.56
2022-11-04T12:37:07.528Z,99373.72
2022-11-04T12:40:20.464Z,99371.00
2022-11-04T12:43:29.076Z,99377.78
2022-11-04T12:46:38.624Z,99383.94
2022-11-04T12:49:57.253Z,99391.16
2022-11-04T12:53:28.059Z,99393.56
2022-11-04T12:56:37.526Z,99400.16
2022-11-04T12:59:52.694Z,99402.19
2022-11-04T13:03:00.717Z,99416.59
2022-11-04T13:06:05.776Z,99417.59
2022-11-04T13:09:14.332Z,99415.66
2022-11-04T13:12:19.683Z,99425.72
2022-11-04T13:15:23.553Z,99430.88
2022-11-04T13:18:30.388Z,99429.41
2022-11-04T13:21:36.214Z,99433.09
2022-11-04T13:24:43.723Z,99442.16
2022-11-04T13:27:48.049Z,99443.66
2022-11-04T13:31:03.305Z,99452.25
2022-11-04T13:34:16.127Z,99445.03
2022-11-04T13:37:26.028Z,99454.94
2022-11-04T13:40:41.457Z,99453.25
2022-11-04T13:43:49.510Z,99451.59
2022-11-04T13:46:54.143Z,99460.31
2022-11-04T13:49:56.106Z,99463.06
2022-11-04T13:52:58.049Z,99470.63
2022-11-04T13:56:20.918Z,99479.66
2022-11-04T13:59:27.472Z,99474.94
2022-11-04T14:02:41.220Z,99474.03
2022-11-04T14:06:01.135Z,99478.66
2022-11-04T14:09:39.522Z,99487.47
2022-11-04T14:12:42.513Z,99485.88
2022-11-04T14:16:01.731Z,99483.59
2022-11-04T14:19:42.090Z,99485.09
2022-11-04T14:22:49.571Z,99486.34
2022-11-04T14:26:01.480Z,99488.41
2022-11-04T14:29:08.237Z,99485.81
2022-11-04T14:32:12.768Z,99488.34
2022-11-04T14:35:18.406Z,99486.47
2022-11-04T14:38:28.691Z,99489.09
2022-11-04T14:41:49.996Z,99491.50
2022-11-04T14:44:53.216Z,99499.41
2022-11-04T14:47:57.302Z,99504.19
2022-11-04T14:50:59.365Z,99503.16
2022-11-04T14:54:05.632Z,99508.53
2022-11-04T14:57:13.957Z,99501.44
2022-11-04T15:00:34.559Z,99507.38
2022-11-04T15:07:01.934Z,99511.13
2022-11-04T15:10:20.081Z,99510.41
2022-11-04T15:13:21.798Z,99514.06
2022-11-04T15:16:27.837Z,99519.75
2022-11-04T15:19:31.414Z,99517.50
2022-11-04T15:22:33.216Z,99521.94
2022-11-04T15:25:35.024Z,99516.34
2022-11-04T15:28:45.034Z,99513.50
2022-11-04T15:31:59.216Z,99529.16
2022-11-04T15:35:01.305Z,99531.03
2022-11-04T15:38:03.851Z,99537.63
2022-11-04T15:41:25.729Z,99550.84
2022-11-04T15:44:29.803Z,99554.03
2022-11-04T15:47:32.820Z,99557.38
2022-11-04T15:50:34.510Z,99570.09
2022-11-04T15:53:46.802Z,99577.16
2022-11-04T15:56:52.732Z,99571.13
2022-11-04T15:59:58.505Z,99579.81
2022-11-04T16:03:02.243Z,99583.47
2022-11-04T16:06:06.915Z,99585.31
2022-11-04T16:09:21.084Z,99590.44
2022-11-04T16:12:27.925Z,99598.44
2022-11-04T16:15:31.862Z,99596.09
2022-11-04T16:18:37.182Z,99589.78
2022-11-04T16:21:40.706Z,99602.25
2022-11-04T16:24:48.340Z,99602.88
2022-11-04T16:27:50.774Z,99595.31
2022-11-04T16:30:56.843Z,99593.84
2022-11-04T16:34:00.167Z,99598.72
2022-11-04T16:37:02.237Z,99594.00
2022-11-04T16:40:06.229Z,99605.94
2022-11-04T16:43:09.752Z,99608.28
2022-11-04T16:46:12.003Z,99621.59
2022-11-04T16:49:16.395Z,99624.34
2022-11-04T16:52:25.414Z,99629.03
2022-11-04T16:55:29.368Z,99628.22
2022-11-04T16:58:31.209Z,99627.19
2022-11-04T17:01:33.053Z,99629.28
2022-11-04T17:04:36.182Z,99636.91
2022-11-04T17:07:52.080Z,99635.34
2022-11-04T17:10:56.077Z,99642.97
2022-11-04T17:13:57.784Z,99645.97
2022-11-04T17:16:59.415Z,99643.22
2022-11-04T17:20:02.455Z,99654.13
2022-11-04T17:23:04.242Z,99665.41
2022-11-04T17:26:05.933Z,99670.13
2022-11-04T17:29:08.490Z,99673.28
2022-11-04T17:32:12.175Z,99664.88
2022-11-04T17:35:17.495Z,99668.53
2022-11-04T17:38:19.293Z,99676.31
2022-11-04T17:41:39.518Z,99682.06
2022-11-04T17:44:41.131Z,99689.53
2022-11-04T17:47:42.713Z,99690.31
2022-11-04T17:50:47.123Z,99692.66
2022-11-04T17:53:49.305Z,99701.41
2022-11-04T17:56:51.275Z,99711.25
2022-11-04T17:59:52.937Z,99711.13
2022-11-04T18:02:54.703Z,99717.78
2022-11-04T18:05:59.422Z,99719.97
2022-11-04T18:09:01.960Z,99727.19
2022-11-04T18:12:22.694Z,99728.66
2022-11-04T18:15:24.529Z,99727.56
2022-11-04T18:18:26.265Z,99731.59
2022-11-04T18:21:30.875Z,99739.78
2022-11-04T18:24:32.672Z,99741.16
2022-11-04T18:27:34.373Z,99744.81
2022-11-04T18:30:38.990Z,99743.53
2022-11-04T18:33:43.372Z,99751.06
2022-11-04T18:36:47.359Z,99750.00
2022-11-04T18:39:49.004Z,99752.25
2022-11-04T18:42:50.852Z,99751.06
2022-11-04T18:45:53.562Z,99746.03
2022-11-04T18:48:55.209Z,99751.66
2022-11-04T18:52:00.188Z,99747.31
2022-11-04T18:55:01.831Z,99757.28
2022-11-04T18:58:05.351Z,99769.88
2022-11-04T19:01:09.306Z,99771.59
2022-11-04T19:04:12.957Z,99782.34
2022-11-04T19:07:16.306Z,99779.31
2022-11-04T19:10:18.140Z,99784.63
2022-11-04T19:13:20.493Z,99789.84
2022-11-04T19:16:22.766Z,99790.69
2022-11-04T19:19:24.379Z,99794.59
2022-11-04T19:22:27.473Z,99805.38
2022-11-04T19:25:29.202Z,99806.41
2022-11-04T19:28:46.933Z,99801.69
2022-11-04T19:31:49.633Z,99810.41
2022-11-04T19:34:51.260Z,99823.44
2022-11-04T19:37:54.809Z,99829.34
2022-11-04T19:40:56.522Z,99829.59
2022-11-04T19:43:58.305Z,99839.84
2022-11-04T19:46:59.932Z,99837.22
2022-11-04T19:50:02.349Z,99841.19
2022-11-04T19:53:05.467Z,99832.56
2022-11-04T19:56:07.447Z,99842.94
2022-11-04T19:59:10.735Z,99851.88
2022-11-04T20:02:14.084Z,99856.75
2022-11-04T20:05:16.604Z,99862.03
2022-11-04T20:08:19.754Z,99870.22
2022-11-04T20:11:21.513Z,99866.94
2022-11-04T20:14:23.418Z,99871.03
2022-11-04T20:17:25.235Z,99865.63
2022-11-04T20:20:26.899Z,99872.53
2022-11-04T20:23:29.944Z,99884.28
2022-11-04T20:26:35.005Z,99883.47
2022-11-04T20:29:36.643Z,99896.09
2022-11-04T20:32:38.396Z,99889.56
2022-11-04T20:35:40.446Z,99895.47
2022-11-04T20:38:43.484Z,99900.69
2022-11-04T20:41:46.123Z,99908.25
2022-11-04T20:44:47.889Z,99911.78
2022-11-04T20:47:49.564Z,99919.13
2022-11-04T20:50:51.305Z,99925.94
2022-11-04T20:54:00.153Z,99924.63
2022-11-04T20:57:02.147Z,99923.03
2022-11-04T21:00:07.163Z,99928.41
2022-11-04T21:03:08.830Z,99936.16
2022-11-04T21:06:10.852Z,99930.78
2022-11-04T21:09:15.743Z,99938.00
2022-11-04T21:12:18.310Z,99935.13
2022-11-04T21:15:38.621Z,99944.03
2022-11-04T21:18:40.780Z,99946.13
2022-11-04T21:21:43.239Z,99955.16
2022-11-04T21:24:46.231Z,99957.16
2022-11-04T21:27:47.904Z,99971.38
2022-11-04T21:30:52.041Z,99963.50
2022-11-04T21:33:54.240Z,99969.16
2022-11-04T21:36:55.883Z,99968.66
2022-11-04T21:39:58.927Z,99962.69
2022-11-04T21:43:00.575Z,99967.78
2022-11-04T21:46:03.419Z,99974.50
2022-11-04T21:49:05.445Z,99972.38
2022-11-04T21:52:07.020Z,99979.56
2022-11-04T21:55:10.621Z,99984.03
2022-11-04T21:58:12.588Z,99980.88
2022-11-04T22:01:17.123Z,99992.00
2022-11-04T22:04:18.864Z,99992.53
2022-11-04T22:07:40.483Z,99995.09
2022-11-04T22:10:44.004Z,100003.13
2022-11-04T22:13:46.227Z,100006.78
2022-11-04T22:16:47.961Z,100008.63
2022-11-04T22:19:49.584Z,100007.22
2022-11-04T22:22:51.223Z,100003.38
2022-11-04T22:25:59.228Z,100003.03
2022-11-04T22:29:01.267Z,100010.63
2022-11-04T22:32:02.884Z,100006.47
2022-11-04T22:35:05.681Z,100010.75
2022-11-04T22:38:07.324Z,100007.22
2022-11-04T22:41:12.836Z,100009.22
2022-11-04T22:44:14.984Z,100020.63
2022-11-04T22:47:16.730Z,100018.91
2022-11-04T22:50:18.906Z,100018.63
2022-11-04T22:53:20.760Z,100014.97
2022-11-04T22:56:23.741Z,100012.75
2022-11-04T22:59:25.571Z,100021.69
2022-11-04T23:02:32.443Z,100025.44
2022-11-04T23:05:38.028Z,100028.72
2022-11-04T23:08:41.316Z,100033.19
2022-11-04T23:12:02.807Z,100033.81
2022-11-04T23:15:23.564Z,100035.94
2022-11-04T23:18:43.282Z,100034.22
2022-11-04T23:22:03.474Z,100040.84
2022-11-04T23:25:06.428Z,100045.44
2022-11-04T23:28:28.214Z,100043.31
2022-11-04T23:31:29.888Z,100047.00
2022-11-04T23:34:50.107Z,100051.59
2022-11-04T23:37:56.908Z,100052.50
2022-11-04T23:41:19.928Z,100048.69
2022-11-04T23:44:43.181Z,100057.84
2022-11-04T23:48:05.949Z,100052.88
2022-11-04T23:51:28.913Z,100061.09
2022-11-04T23:54:49.117Z,100070.66
2022-11-04T23:58:09.482Z,100067.09
